Latest  Newer  Older  Last 2 hours animation  Current image  Latest image 
Rain/snow radar  Infrared sat images 
Real-time lightning map

All time is UTC (add 2 hours to UTC in wintertime, 3 hours to UTC in DST for Latvia local time)

2018/09/24 19:20 EVRA 241920Z 32014KT 270V350 9999 -SHRA SCT035CB BKN042 10/04 Q1010 NOSIG
2018/09/24 19:20 EVLA 241920Z AUTO 35004KT 290V090 9999 -RA BKN028/// BKN057/// BKN100/// 08/04 Q1015
2018/09/24 19:20 EVVA 241920Z AUTO 34015G28KT 9999 FEW045 SCT055 11/02 Q1013
2018/09/24 19:20 EYKA 241920Z 28006KT 260V320 CAVOK 07/05 Q1012
2018/09/24 19:20 EYPA 241920Z VRB05G17KT 9999 -TSRA SCT042CB BKN077 08/04 Q1016
2018/09/24 19:20 EYSA 241920Z 30012KT CAVOK 06/04 Q1012 BLU NOSIG
2018/09/24 19:20 EYVI 241920Z 31010KT 9999 BKN043CB BKN062 07/05 Q1010 NOSIG
2018/09/24 14:50 EEKA 241450Z 32021KT 9999 -RA BKN030 11/03 Q1007
2018/09/24 19:34 EEKE 241934Z AUTO 34015G26KT 290V010 9999NDV -RA FEW013 SCT034 08/03 Q1012
2018/09/24 12:50 EEPU 241250Z 31006KT CAVOK 11/04 Q1005
2018/09/24 19:20 EETN 241920Z 32013KT 290V350 9999 BKN033 09/03 Q1008 NOSIG
2018/09/24 18:50 EETU 241850Z AUTO 29006KT 9999 NCD 06/02 Q1006
   RIGA AIRPORT     EVRA               56 55N  023 58E   10   X     T          6 LV
   LIEPAJA INTL     EVLA        26406  56 31N  021 06E    4   X                8 LV
   VENTPILS         EVVA               57 21N  021 33E    6   X                8 LV
   KAUNAS           EYKA               54 54N  023 55E   77   X     T          6 LT
   PALANGA INTL     EYPA               55 55N  021 03E   10   X                6 LT
   SIAULIAI INTL    EYSA               55 54N  023 24E  135   X     T          6 LT
   VILNIUS INTL     EYVI        26730  54 38N  025 17E  197   X     T          6 LT
   KARDLA           EEKA        26116  58 59N  022 50E    4   X                8 EE
   KURESSAARE       EEKE               58 14N  022 31E    4   X                8 EE
   PARNU            EEPU               58 25N  024 28E   14   X                8 EE
   TALLINN          EETN        26038  59 24N  024 49E   40   X     T          8 EE
   TARTU            EETU               58 19N  026 41E   67   X                8 EE

cloud coverage image from sat24.com and METAR data from weather.noaa.gov